sensor_id;sensor_type;location;lat;lon;timestamp;temperature;humidity
52125;DHT22;38119;52.710;6.398;2023-06-01T00:02:06;13.70;99.90
52125;DHT22;38119;52.710;6.398;2023-06-01T00:04:31;13.70;99.90
52125;DHT22;38119;52.710;6.398;2023-06-01T00:06:57;13.60;99.90
52125;DHT22;38119;52.710;6.398;2023-06-01T00:09:27;13.60;99.90
52125;DHT22;38119;52.710;6.398;2023-06-01T00:11:52;13.50;99.90
52125;DHT22;38119;52.710;6.398;2023-06-01T00:14:18;13.60;99.90
52125;DHT22;38119;52.710;6.398;2023-06-01T00:16:44;13.60;99.90
52125;DHT22;38119;52.710;6.398;2023-06-01T00:19:10;13.60;99.90
52125;DHT22;38119;52.710;6.398;2023-06-01T00:21:36;13.60;99.90
52125;DHT22;38119;52.710;6.398;2023-06-01T00:24:02;13.60;99.90
52125;DHT22;38119;52.710;6.398;2023-06-01T00:26:28;13.50;99.90
52125;DHT22;38119;52.710;6.398;2023-06-01T00:28:57;13.50;99.90
52125;DHT22;38119;52.710;6.398;2023-06-01T00:31:23;13.50;99.90
52125;DHT22;38119;52.710;6.398;2023-06-01T00:33:49;13.50;99.90
52125;DHT22;38119;52.710;6.398;2023-06-01T00:36:16;13.50;99.90
52125;DHT22;38119;52.710;6.398;2023-06-01T00:38:41;13.50;99.90
52125;DHT22;38119;52.710;6.398;2023-06-01T00:41:07;13.50;99.90
52125;DHT22;38119;52.710;6.398;2023-06-01T00:43:32;13.50;99.90
52125;DHT22;38119;52.710;6.398;2023-06-01T00:45:58;13.40;99.90
52125;DHT22;38119;52.710;6.398;2023-06-01T00:48:24;13.50;99.90
52125;DHT22;38119;52.710;6.398;2023-06-01T00:50:50;13.40;99.90
52125;DHT22;38119;52.710;6.398;2023-06-01T00:53:18;13.40;99.90
52125;DHT22;38119;52.710;6.398;2023-06-01T00:55:45;13.40;99.90
52125;DHT22;38119;52.710;6.398;2023-06-01T00:58:12;13.40;99.90
52125;DHT22;38119;52.710;6.398;2023-06-01T01:00:38;13.40;99.90
52125;DHT22;38119;52.710;6.398;2023-06-01T01:03:05;13.30;99.90
52125;DHT22;38119;52.710;6.398;2023-06-01T01:05:39;13.40;99.90
52125;DHT22;38119;52.710;6.398;2023-06-01T01:08:28;13.40;99.90
52125;DHT22;38119;52.710;6.398;2023-06-01T01:11:06;13.30;99.90
52125;DHT22;38119;52.710;6.398;2023-06-01T01:13:41;13.40;99.90
52125;DHT22;38119;52.710;6.398;2023-06-01T01:21:32;13.40;99.90
52125;DHT22;38119;52.710;6.398;2023-06-01T01:24:15;13.40;99.90
52125;DHT22;38119;52.710;6.398;2023-06-01T01:29:35;13.40;99.90
52125;DHT22;38119;52.710;6.398;2023-06-01T01:32:04;13.30;99.90
52125;DHT22;38119;52.710;6.398;2023-06-01T01:34:31;13.30;99.90
52125;DHT22;38119;52.710;6.398;2023-06-01T01:36:58;13.20;99.90
52125;DHT22;38119;52.710;6.398;2023-06-01T01:39:24;13.10;99.90
52125;DHT22;38119;52.710;6.398;2023-06-01T01:41:49;13.20;99.90
52125;DHT22;38119;52.710;6.398;2023-06-01T01:44:15;13.10;99.90
52125;DHT22;38119;52.710;6.398;2023-06-01T01:49:34;13.20;99.90
52125;DHT22;38119;52.710;6.398;2023-06-01T01:55:09;13.10;99.90
52125;DHT22;38119;52.710;6.398;2023-06-01T01:57:35;13.10;99.90
52125;DHT22;38119;52.710;6.398;2023-06-01T02:00:02;13.10;99.90
52125;DHT22;38119;52.710;6.398;2023-06-01T02:02:28;13.10;99.90
52125;DHT22;38119;52.710;6.398;2023-06-01T02:04:54;13.10;99.90
52125;DHT22;38119;52.710;6.398;2023-06-01T02:07:20;13.00;99.90
52125;DHT22;38119;52.710;6.398;2023-06-01T02:09:46;13.10;99.90
52125;DHT22;38119;52.710;6.398;2023-06-01T02:12:12;13.10;99.90
52125;DHT22;38119;52.710;6.398;2023-06-01T02:14:38;13.10;99.90
52125;DHT22;38119;52.710;6.398;2023-06-01T02:17:03;13.10;99.90
52125;DHT22;38119;52.710;6.398;2023-06-01T02:19:30;13.10;99.90
52125;DHT22;38119;52.710;6.398;2023-06-01T02:21:56;13.10;99.90
52125;DHT22;38119;52.710;6.398;2023-06-01T02:24:22;13.10;99.90
52125;DHT22;38119;52.710;6.398;2023-06-01T02:26:48;13.10;99.90
52125;DHT22;38119;52.710;6.398;2023-06-01T02:29:21;13.10;99.90
52125;DHT22;38119;52.710;6.398;2023-06-01T02:31:50;13.20;99.90
52125;DHT22;38119;52.710;6.398;2023-06-01T02:34:20;13.10;99.90
52125;DHT22;38119;52.710;6.398;2023-06-01T02:36:45;13.10;99.90
52125;DHT22;38119;52.710;6.398;2023-06-01T02:39:12;13.10;99.90
52125;DHT22;38119;52.710;6.398;2023-06-01T02:41:38;13.10;99.90
52125;DHT22;38119;52.710;6.398;2023-06-01T02:44:03;13.00;99.90
52125;DHT22;38119;52.710;6.398;2023-06-01T02:46:29;13.00;99.90
52125;DHT22;38119;52.710;6.398;2023-06-01T02:48:55;12.90;99.90
52125;DHT22;38119;52.710;6.398;2023-06-01T02:51:20;12.90;99.90
52125;DHT22;38119;52.710;6.398;2023-06-01T02:53:46;12.90;99.90
52125;DHT22;38119;52.710;6.398;2023-06-01T02:56:12;12.90;99.90
52125;DHT22;38119;52.710;6.398;2023-06-01T02:58:38;12.80;99.90
52125;DHT22;38119;52.710;6.398;2023-06-01T03:01:04;12.90;99.90
52125;DHT22;38119;52.710;6.398;2023-06-01T03:03:29;12.90;99.90
52125;DHT22;38119;52.710;6.398;2023-06-01T03:05:56;12.90;99.90
52125;DHT22;38119;52.710;6.398;2023-06-01T03:08:22;12.90;99.90
52125;DHT22;38119;52.710;6.398;2023-06-01T03:10:50;12.90;99.90
52125;DHT22;38119;52.710;6.398;2023-06-01T03:13:16;12.90;99.90
52125;DHT22;38119;52.710;6.398;2023-06-01T03:15:41;12.90;99.90
52125;DHT22;38119;52.710;6.398;2023-06-01T03:18:07;12.90;99.90
52125;DHT22;38119;52.710;6.398;2023-06-01T03:20:34;12.90;99.90
52125;DHT22;38119;52.710;6.398;2023-06-01T03:23:00;12.90;99.90
52125;DHT22;38119;52.710;6.398;2023-06-01T03:25:26;12.90;99.90
52125;DHT22;38119;52.710;6.398;2023-06-01T03:27:52;12.80;99.90
52125;DHT22;38119;52.710;6.398;2023-06-01T03:30:18;12.80;99.90
52125;DHT22;38119;52.710;6.398;2023-06-01T03:32:44;12.90;99.90
52125;DHT22;38119;52.710;6.398;2023-06-01T03:35:11;12.80;99.90
52125;DHT22;38119;52.710;6.398;2023-06-01T03:37:38;12.80;99.90
52125;DHT22;38119;52.710;6.398;2023-06-01T03:40:05;12.80;99.90
52125;DHT22;38119;52.710;6.398;2023-06-01T03:42:47;12.80;99.90
52125;DHT22;38119;52.710;6.398;2023-06-01T03:45:14;12.80;99.90
52125;DHT22;38119;52.710;6.398;2023-06-01T03:47:41;12.80;99.90
52125;DHT22;38119;52.710;6.398;2023-06-01T03:50:09;12.80;99.90
52125;DHT22;38119;52.710;6.398;2023-06-01T03:52:35;12.80;99.90
52125;DHT22;38119;52.710;6.398;2023-06-01T03:55:02;12.80;99.90
52125;DHT22;38119;52.710;6.398;2023-06-01T03:57:30;12.80;99.90
52125;DHT22;38119;52.710;6.398;2023-06-01T03:59:55;12.80;99.90
52125;DHT22;38119;52.710;6.398;2023-06-01T04:02:21;12.80;99.90
52125;DHT22;38119;52.710;6.398;2023-06-01T04:04:48;12.80;99.90
52125;DHT22;38119;52.710;6.398;2023-06-01T04:07:14;12.80;99.90
52125;DHT22;38119;52.710;6.398;2023-06-01T04:09:43;12.90;99.90
52125;DHT22;38119;52.710;6.398;2023-06-01T04:12:09;13.10;99.90
52125;DHT22;38119;52.710;6.398;2023-06-01T04:14:36;12.80;99.90
52125;DHT22;38119;52.710;6.398;2023-06-01T04:17:02;12.80;99.90
52125;DHT22;38119;52.710;6.398;2023-06-01T04:19:27;12.80;99.90
52125;DHT22;38119;52.710;6.398;2023-06-01T04:21:53;12.80;99.90
52125;DHT22;38119;52.710;6.398;2023-06-01T04:24:19;12.90;99.90
52125;DHT22;38119;52.710;6.398;2023-06-01T04:26:44;12.90;99.90
52125;DHT22;38119;52.710;6.398;2023-06-01T04:29:11;12.90;99.90
52125;DHT22;38119;52.710;6.398;2023-06-01T04:31:38;12.90;99.90
52125;DHT22;38119;52.710;6.398;2023-06-01T04:34:04;13.00;99.90
52125;DHT22;38119;52.710;6.398;2023-06-01T04:36:33;13.00;99.90
52125;DHT22;38119;52.710;6.398;2023-06-01T04:39:02;13.00;99.90
52125;DHT22;38119;52.710;6.398;2023-06-01T04:41:29;13.00;99.90
52125;DHT22;38119;52.710;6.398;2023-06-01T04:43:56;13.00;99.90
52125;DHT22;38119;52.710;6.398;2023-06-01T04:46:24;12.90;99.90
52125;DHT22;38119;52.710;6.398;2023-06-01T04:48:52;13.00;99.90
52125;DHT22;38119;52.710;6.398;2023-06-01T04:51:19;13.00;99.90
52125;DHT22;38119;52.710;6.398;2023-06-01T04:53:50;12.90;99.90
52125;DHT22;38119;52.710;6.398;2023-06-01T04:56:22;13.00;99.90
52125;DHT22;38119;52.710;6.398;2023-06-01T04:58:55;13.00;99.90
52125;DHT22;38119;52.710;6.398;2023-06-01T05:01:22;13.00;99.90
52125;DHT22;38119;52.710;6.398;2023-06-01T05:03:51;13.00;99.90
52125;DHT22;38119;52.710;6.398;2023-06-01T05:06:19;13.00;99.90
52125;DHT22;38119;52.710;6.398;2023-06-01T05:08:45;13.00;99.90
52125;DHT22;38119;52.710;6.398;2023-06-01T05:11:11;13.10;99.90
52125;DHT22;38119;52.710;6.398;2023-06-01T05:13:38;13.10;99.90
52125;DHT22;38119;52.710;6.398;2023-06-01T05:16:04;13.00;99.90
52125;DHT22;38119;52.710;6.398;2023-06-01T05:18:31;13.00;99.90
52125;DHT22;38119;52.710;6.398;2023-06-01T05:20:57;13.00;99.90
52125;DHT22;38119;52.710;6.398;2023-06-01T05:23:24;13.10;99.90
52125;DHT22;38119;52.710;6.398;2023-06-01T05:25:50;13.10;99.90
52125;DHT22;38119;52.710;6.398;2023-06-01T05:28:16;13.10;99.90
52125;DHT22;38119;52.710;6.398;2023-06-01T05:30:41;13.00;99.90
52125;DHT22;38119;52.710;6.398;2023-06-01T05:33:07;13.10;99.90
52125;DHT22;38119;52.710;6.398;2023-06-01T05:35:32;13.10;99.90
52125;DHT22;38119;52.710;6.398;2023-06-01T05:37:58;13.10;99.90
52125;DHT22;38119;52.710;6.398;2023-06-01T05:40:23;13.10;99.90
52125;DHT22;38119;52.710;6.398;2023-06-01T05:42:49;13.10;99.90
52125;DHT22;38119;52.710;6.398;2023-06-01T05:45:15;13.10;99.90
52125;DHT22;38119;52.710;6.398;2023-06-01T05:47:40;13.10;99.90
52125;DHT22;38119;52.710;6.398;2023-06-01T05:50:06;13.00;99.90
52125;DHT22;38119;52.710;6.398;2023-06-01T05:52:32;13.10;99.90
52125;DHT22;38119;52.710;6.398;2023-06-01T05:54:57;13.10;99.90
52125;DHT22;38119;52.710;6.398;2023-06-01T05:57:23;13.10;99.90
52125;DHT22;38119;52.710;6.398;2023-06-01T05:59:49;13.20;99.90
52125;DHT22;38119;52.710;6.398;2023-06-01T06:02:15;13.10;99.90
52125;DHT22;38119;52.710;6.398;2023-06-01T06:04:41;13.20;99.90
52125;DHT22;38119;52.710;6.398;2023-06-01T06:07:06;13.20;99.90
52125;DHT22;38119;52.710;6.398;2023-06-01T06:09:33;13.10;99.90
52125;DHT22;38119;52.710;6.398;2023-06-01T06:11:58;13.20;99.90
52125;DHT22;38119;52.710;6.398;2023-06-01T06:14:25;13.30;99.90
52125;DHT22;38119;52.710;6.398;2023-06-01T06:16:51;13.20;99.90
52125;DHT22;38119;52.710;6.398;2023-06-01T06:19:16;13.30;99.90
52125;DHT22;38119;52.710;6.398;2023-06-01T06:21:42;13.20;99.90
52125;DHT22;38119;52.710;6.398;2023-06-01T06:24:08;13.40;99.90
52125;DHT22;38119;52.710;6.398;2023-06-01T06:26:33;13.40;99.90
52125;DHT22;38119;52.710;6.398;2023-06-01T06:28:59;13.40;99.90
52125;DHT22;38119;52.710;6.398;2023-06-01T06:31:25;13.40;99.90
52125;DHT22;38119;52.710;6.398;2023-06-01T06:33:51;13.40;99.90
52125;DHT22;38119;52.710;6.398;2023-06-01T06:36:17;13.40;99.90
52125;DHT22;38119;52.710;6.398;2023-06-01T06:38:43;13.40;99.90
52125;DHT22;38119;52.710;6.398;2023-06-01T06:41:09;13.40;99.90
52125;DHT22;38119;52.710;6.398;2023-06-01T06:43:34;13.40;99.90
52125;DHT22;38119;52.710;6.398;2023-06-01T06:46:00;13.50;99.90
52125;DHT22;38119;52.710;6.398;2023-06-01T06:48:26;13.50;99.90
52125;DHT22;38119;52.710;6.398;2023-06-01T06:50:51;13.50;99.90
52125;DHT22;38119;52.710;6.398;2023-06-01T06:53:17;13.50;99.90
52125;DHT22;38119;52.710;6.398;2023-06-01T06:55:43;13.50;99.90
52125;DHT22;38119;52.710;6.398;2023-06-01T06:58:10;13.50;99.90
52125;DHT22;38119;52.710;6.398;2023-06-01T07:00:36;13.60;99.90
52125;DHT22;38119;52.710;6.398;2023-06-01T07:03:02;13.60;99.90
52125;DHT22;38119;52.710;6.398;2023-06-01T07:05:29;13.60;99.90
52125;DHT22;38119;52.710;6.398;2023-06-01T07:07:55;13.70;99.90
52125;DHT22;38119;52.710;6.398;2023-06-01T07:10:21;13.80;99.90
52125;DHT22;38119;52.710;6.398;2023-06-01T07:12:46;13.80;99.90
52125;DHT22;38119;52.710;6.398;2023-06-01T07:15:12;13.90;99.90
52125;DHT22;38119;52.710;6.398;2023-06-01T07:17:38;13.90;99.90
52125;DHT22;38119;52.710;6.398;2023-06-01T07:20:04;13.90;99.90
52125;DHT22;38119;52.710;6.398;2023-06-01T07:22:34;14.00;99.90
52125;DHT22;38119;52.710;6.398;2023-06-01T07:25:00;14.00;99.90
52125;DHT22;38119;52.710;6.398;2023-06-01T07:27:26;14.00;99.90
52125;DHT22;38119;52.710;6.398;2023-06-01T07:29:52;14.10;99.90
52125;DHT22;38119;52.710;6.398;2023-06-01T07:32:24;14.10;99.90
52125;DHT22;38119;52.710;6.398;2023-06-01T07:34:50;14.10;99.90
52125;DHT22;38119;52.710;6.398;2023-06-01T07:37:16;14.20;99.90
52125;DHT22;38119;52.710;6.398;2023-06-01T07:39:41;14.20;99.90
52125;DHT22;38119;52.710;6.398;2023-06-01T07:42:07;14.20;99.90
52125;DHT22;38119;52.710;6.398;2023-06-01T07:44:33;14.30;99.90
52125;DHT22;38119;52.710;6.398;2023-06-01T07:46:58;14.30;99.90
52125;DHT22;38119;52.710;6.398;2023-06-01T07:49:24;14.40;99.90
52125;DHT22;38119;52.710;6.398;2023-06-01T07:51:50;14.40;99.90
52125;DHT22;38119;52.710;6.398;2023-06-01T07:54:17;14.50;99.90
52125;DHT22;38119;52.710;6.398;2023-06-01T07:56:43;14.50;99.90
52125;DHT22;38119;52.710;6.398;2023-06-01T07:59:09;14.60;99.90
52125;DHT22;38119;52.710;6.398;2023-06-01T08:01:36;14.60;99.90
52125;DHT22;38119;52.710;6.398;2023-06-01T08:04:01;14.70;99.90
52125;DHT22;38119;52.710;6.398;2023-06-01T08:06:27;14.80;99.90
52125;DHT22;38119;52.710;6.398;2023-06-01T08:08:53;14.80;99.90
52125;DHT22;38119;52.710;6.398;2023-06-01T08:11:19;14.80;99.90
52125;DHT22;38119;52.710;6.398;2023-06-01T08:13:45;14.80;99.90
52125;DHT22;38119;52.710;6.398;2023-06-01T08:16:13;14.80;99.90
52125;DHT22;38119;52.710;6.398;2023-06-01T08:18:39;14.90;99.90
52125;DHT22;38119;52.710;6.398;2023-06-01T08:21:05;14.90;99.90
52125;DHT22;38119;52.710;6.398;2023-06-01T08:23:31;15.00;99.90
52125;DHT22;38119;52.710;6.398;2023-06-01T08:25:56;15.10;99.90
52125;DHT22;38119;52.710;6.398;2023-06-01T08:28:22;15.20;99.90
52125;DHT22;38119;52.710;6.398;2023-06-01T08:30:48;15.20;99.90
52125;DHT22;38119;52.710;6.398;2023-06-01T08:33:14;15.20;99.90
52125;DHT22;38119;52.710;6.398;2023-06-01T08:35:40;15.20;99.90
52125;DHT22;38119;52.710;6.398;2023-06-01T08:38:06;15.20;99.90
52125;DHT22;38119;52.710;6.398;2023-06-01T08:40:32;15.20;99.90
52125;DHT22;38119;52.710;6.398;2023-06-01T08:45:25;15.30;99.90
52125;DHT22;38119;52.710;6.398;2023-06-01T08:47:55;15.30;99.90
52125;DHT22;38119;52.710;6.398;2023-06-01T08:50:23;15.40;99.90
52125;DHT22;38119;52.710;6.398;2023-06-01T08:52:52;15.40;99.90
52125;DHT22;38119;52.710;6.398;2023-06-01T08:55:20;15.40;99.90
52125;DHT22;38119;52.710;6.398;2023-06-01T08:57:46;15.40;99.90
52125;DHT22;38119;52.710;6.398;2023-06-01T09:00:12;15.40;99.90
52125;DHT22;38119;52.710;6.398;2023-06-01T09:02:38;15.50;99.90
52125;DHT22;38119;52.710;6.398;2023-06-01T09:05:05;15.50;99.90
52125;DHT22;38119;52.710;6.398;2023-06-01T09:07:31;15.50;99.90
52125;DHT22;38119;52.710;6.398;2023-06-01T09:09:57;15.50;99.90
52125;DHT22;38119;52.710;6.398;2023-06-01T09:12:30;15.50;99.90
52125;DHT22;38119;52.710;6.398;2023-06-01T09:15:09;15.60;99.90
52125;DHT22;38119;52.710;6.398;2023-06-01T09:17:35;15.60;99.90
52125;DHT22;38119;52.710;6.398;2023-06-01T09:20:02;15.70;99.90
52125;DHT22;38119;52.710;6.398;2023-06-01T09:22:39;15.70;99.90
52125;DHT22;38119;52.710;6.398;2023-06-01T09:25:05;15.70;99.90
52125;DHT22;38119;52.710;6.398;2023-06-01T09:27:42;15.80;99.90
52125;DHT22;38119;52.710;6.398;2023-06-01T09:30:08;15.80;99.90
52125;DHT22;38119;52.710;6.398;2023-06-01T09:32:34;15.80;99.90
52125;DHT22;38119;52.710;6.398;2023-06-01T09:34:59;15.90;99.90
52125;DHT22;38119;52.710;6.398;2023-06-01T09:37:25;15.90;99.90
52125;DHT22;38119;52.710;6.398;2023-06-01T09:39:51;15.90;99.90
52125;DHT22;38119;52.710;6.398;2023-06-01T09:42:17;16.00;99.90
52125;DHT22;38119;52.710;6.398;2023-06-01T09:44:43;16.00;99.90
52125;DHT22;38119;52.710;6.398;2023-06-01T09:47:12;16.00;99.90
52125;DHT22;38119;52.710;6.398;2023-06-01T09:49:43;16.10;99.90
52125;DHT22;38119;52.710;6.398;2023-06-01T09:52:14;16.10;99.90
52125;DHT22;38119;52.710;6.398;2023-06-01T09:54:46;16.10;99.90
52125;DHT22;38119;52.710;6.398;2023-06-01T09:57:13;16.10;99.90
52125;DHT22;38119;52.710;6.398;2023-06-01T09:59:45;16.10;99.90
52125;DHT22;38119;52.710;6.398;2023-06-01T10:02:16;16.10;99.90
52125;DHT22;38119;52.710;6.398;2023-06-01T10:04:48;16.10;99.90
52125;DHT22;38119;52.710;6.398;2023-06-01T10:07:16;16.10;99.90
52125;DHT22;38119;52.710;6.398;2023-06-01T10:09:44;16.10;99.90
52125;DHT22;38119;52.710;6.398;2023-06-01T10:12:10;16.10;99.90
52125;DHT22;38119;52.710;6.398;2023-06-01T10:14:37;16.10;99.90
52125;DHT22;38119;52.710;6.398;2023-06-01T10:17:04;16.00;99.90
52125;DHT22;38119;52.710;6.398;2023-06-01T10:19:30;16.00;99.90
52125;DHT22;38119;52.710;6.398;2023-06-01T10:21:59;16.00;99.90
52125;DHT22;38119;52.710;6.398;2023-06-01T10:24:26;16.00;99.90
52125;DHT22;38119;52.710;6.398;2023-06-01T10:27:20;16.00;99.90
52125;DHT22;38119;52.710;6.398;2023-06-01T10:29:48;15.90;99.90
52125;DHT22;38119;52.710;6.398;2023-06-01T10:32:42;15.90;99.90
52125;DHT22;38119;52.710;6.398;2023-06-01T10:35:09;15.90;99.90
52125;DHT22;38119;52.710;6.398;2023-06-01T10:40:42;15.80;99.90
52125;DHT22;38119;52.710;6.398;2023-06-01T10:46:34;15.80;99.90
52125;DHT22;38119;52.710;6.398;2023-06-01T10:49:01;15.80;99.90
52125;DHT22;38119;52.710;6.398;2023-06-01T10:51:27;15.80;99.90
52125;DHT22;38119;52.710;6.398;2023-06-01T10:53:54;15.70;99.90
52125;DHT22;38119;52.710;6.398;2023-06-01T10:56:24;15.70;99.90
52125;DHT22;38119;52.710;6.398;2023-06-01T10:59:10;15.70;99.90
52125;DHT22;38119;52.710;6.398;2023-06-01T11:01:40;15.70;99.90
52125;DHT22;38119;52.710;6.398;2023-06-01T11:04:07;15.60;99.90
52125;DHT22;38119;52.710;6.398;2023-06-01T11:06:35;15.70;99.90
52125;DHT22;38119;52.710;6.398;2023-06-01T11:09:05;15.70;99.90
52125;DHT22;38119;52.710;6.398;2023-06-01T11:14:27;15.80;99.90
52125;DHT22;38119;52.710;6.398;2023-06-01T11:16:55;15.90;99.90
52125;DHT22;38119;52.710;6.398;2023-06-01T11:19:26;16.00;99.90
52125;DHT22;38119;52.710;6.398;2023-06-01T11:21:57;16.00;99.90
52125;DHT22;38119;52.710;6.398;2023-06-01T11:24:37;16.10;99.90
52125;DHT22;38119;52.710;6.398;2023-06-01T11:27:07;16.10;99.90
52125;DHT22;38119;52.710;6.398;2023-06-01T11:29:34;16.10;99.90
52125;DHT22;38119;52.710;6.398;2023-06-01T11:32:02;16.20;99.90
52125;DHT22;38119;52.710;6.398;2023-06-01T11:36:54;16.30;99.90
52125;DHT22;38119;52.710;6.398;2023-06-01T11:39:25;16.30;99.90
52125;DHT22;38119;52.710;6.398;2023-06-01T11:42:05;16.30;99.90
52125;DHT22;38119;52.710;6.398;2023-06-01T11:44:36;16.40;99.90
52125;DHT22;38119;52.710;6.398;2023-06-01T11:47:02;16.40;99.90
52125;DHT22;38119;52.710;6.398;2023-06-01T11:49:28;16.40;99.90
52125;DHT22;38119;52.710;6.398;2023-06-01T11:51:55;16.50;99.90
52125;DHT22;38119;52.710;6.398;2023-06-01T11:54:23;16.60;99.90
52125;DHT22;38119;52.710;6.398;2023-06-01T11:56:50;16.60;99.90
52125;DHT22;38119;52.710;6.398;2023-06-01T11:59:17;16.60;99.90
52125;DHT22;38119;52.710;6.398;2023-06-01T12:01:45;16.60;99.90
52125;DHT22;38119;52.710;6.398;2023-06-01T12:04:15;16.70;99.90
52125;DHT22;38119;52.710;6.398;2023-06-01T12:06:41;16.70;99.90
52125;DHT22;38119;52.710;6.398;2023-06-01T12:09:07;16.70;99.90
52125;DHT22;38119;52.710;6.398;2023-06-01T12:11:34;16.70;99.90
52125;DHT22;38119;52.710;6.398;2023-06-01T12:14:00;16.70;99.90
52125;DHT22;38119;52.710;6.398;2023-06-01T12:16:58;16.70;99.90
52125;DHT22;38119;52.710;6.398;2023-06-01T12:19:26;16.70;99.90
52125;DHT22;38119;52.710;6.398;2023-06-01T12:21:57;16.80;99.90
52125;DHT22;38119;52.710;6.398;2023-06-01T12:24:31;16.80;99.90
52125;DHT22;38119;52.710;6.398;2023-06-01T12:27:02;16.90;99.90
52125;DHT22;38119;52.710;6.398;2023-06-01T12:29:42;16.90;99.90
52125;DHT22;38119;52.710;6.398;2023-06-01T12:32:08;16.90;99.90
52125;DHT22;38119;52.710;6.398;2023-06-01T12:34:35;16.90;99.90
52125;DHT22;38119;52.710;6.398;2023-06-01T12:37:18;16.90;99.90
52125;DHT22;38119;52.710;6.398;2023-06-01T12:39:54;17.10;99.90
52125;DHT22;38119;52.710;6.398;2023-06-01T12:42:38;17.10;99.90
52125;DHT22;38119;52.710;6.398;2023-06-01T12:45:06;17.20;99.90
52125;DHT22;38119;52.710;6.398;2023-06-01T12:47:41;17.20;99.90
52125;DHT22;38119;52.710;6.398;2023-06-01T12:50:08;17.30;99.90
52125;DHT22;38119;52.710;6.398;2023-06-01T12:52:35;17.30;99.90
52125;DHT22;38119;52.710;6.398;2023-06-01T12:55:01;17.70;99.90
52125;DHT22;38119;52.710;6.398;2023-06-01T12:57:29;17.30;99.90
52125;DHT22;38119;52.710;6.398;2023-06-01T12:59:55;17.30;99.90
52125;DHT22;38119;52.710;6.398;2023-06-01T13:02:21;17.50;99.90
52125;DHT22;38119;52.710;6.398;2023-06-01T13:04:46;17.40;99.90
52125;DHT22;38119;52.710;6.398;2023-06-01T13:07:12;17.50;99.90
52125;DHT22;38119;52.710;6.398;2023-06-01T13:09:37;17.60;99.90
52125;DHT22;38119;52.710;6.398;2023-06-01T13:12:03;17.60;99.90
52125;DHT22;38119;52.710;6.398;2023-06-01T13:14:30;17.60;99.90
52125;DHT22;38119;52.710;6.398;2023-06-01T13:16:56;17.50;99.90
52125;DHT22;38119;52.710;6.398;2023-06-01T13:19:22;18.10;99.90
52125;DHT22;38119;52.710;6.398;2023-06-01T13:21:51;17.60;99.90
52125;DHT22;38119;52.710;6.398;2023-06-01T13:24:17;17.60;99.90
52125;DHT22;38119;52.710;6.398;2023-06-01T13:26:43;17.50;99.90
52125;DHT22;38119;52.710;6.398;2023-06-01T13:29:09;17.50;99.90
52125;DHT22;38119;52.710;6.398;2023-06-01T13:31:35;17.60;99.90
52125;DHT22;38119;52.710;6.398;2023-06-01T13:34:02;17.50;99.90
52125;DHT22;38119;52.710;6.398;2023-06-01T13:36:29;17.90;99.90
52125;DHT22;38119;52.710;6.398;2023-06-01T13:38:54;17.40;99.90
52125;DHT22;38119;52.710;6.398;2023-06-01T13:41:21;18.00;99.90
52125;DHT22;38119;52.710;6.398;2023-06-01T13:43:49;17.50;99.90
52125;DHT22;38119;52.710;6.398;2023-06-01T13:46:15;17.40;99.90
52125;DHT22;38119;52.710;6.398;2023-06-01T13:48:41;18.00;99.90
52125;DHT22;38119;52.710;6.398;2023-06-01T13:51:07;17.30;99.90
52125;DHT22;38119;52.710;6.398;2023-06-01T13:53:35;17.30;99.90
52125;DHT22;38119;52.710;6.398;2023-06-01T13:56:00;17.40;99.90
52125;DHT22;38119;52.710;6.398;2023-06-01T13:58:27;18.00;99.90
52125;DHT22;38119;52.710;6.398;2023-06-01T14:00:52;18.20;99.90
52125;DHT22;38119;52.710;6.398;2023-06-01T14:03:18;17.60;99.90
52125;DHT22;38119;52.710;6.398;2023-06-01T14:05:43;18.10;99.90
52125;DHT22;38119;52.710;6.398;2023-06-01T14:08:09;17.40;99.90
52125;DHT22;38119;52.710;6.398;2023-06-01T14:10:35;17.40;99.90
52125;DHT22;38119;52.710;6.398;2023-06-01T14:13:01;17.90;99.90
52125;DHT22;38119;52.710;6.398;2023-06-01T14:15:27;17.60;99.90
52125;DHT22;38119;52.710;6.398;2023-06-01T14:17:52;17.30;99.90
52125;DHT22;38119;52.710;6.398;2023-06-01T14:20:18;17.80;99.90
52125;DHT22;38119;52.710;6.398;2023-06-01T14:22:44;17.30;99.90
52125;DHT22;38119;52.710;6.398;2023-06-01T14:25:10;17.30;99.90
52125;DHT22;38119;52.710;6.398;2023-06-01T14:27:35;17.30;99.90
52125;DHT22;38119;52.710;6.398;2023-06-01T14:30:04;17.40;99.90
52125;DHT22;38119;52.710;6.398;2023-06-01T14:32:30;17.40;99.90
52125;DHT22;38119;52.710;6.398;2023-06-01T14:34:56;18.00;99.90
52125;DHT22;38119;52.710;6.398;2023-06-01T14:37:22;17.30;99.90
52125;DHT22;38119;52.710;6.398;2023-06-01T14:39:48;17.30;99.90
52125;DHT22;38119;52.710;6.398;2023-06-01T14:42:17;16.90;99.90
52125;DHT22;38119;52.710;6.398;2023-06-01T14:44:43;17.20;99.90
52125;DHT22;38119;52.710;6.398;2023-06-01T14:47:09;17.60;99.90
52125;DHT22;38119;52.710;6.398;2023-06-01T14:49:37;17.10;99.90
52125;DHT22;38119;52.710;6.398;2023-06-01T14:52:03;17.10;99.90
52125;DHT22;38119;52.710;6.398;2023-06-01T14:54:29;17.10;99.90
52125;DHT22;38119;52.710;6.398;2023-06-01T14:56:55;17.00;99.90
52125;DHT22;38119;52.710;6.398;2023-06-01T14:59:20;17.00;99.90
52125;DHT22;38119;52.710;6.398;2023-06-01T15:01:49;17.00;99.90
52125;DHT22;38119;52.710;6.398;2023-06-01T15:04:15;16.90;99.90
52125;DHT22;38119;52.710;6.398;2023-06-01T15:06:40;16.90;99.90
52125;DHT22;38119;52.710;6.398;2023-06-01T15:09:08;16.80;99.90
52125;DHT22;38119;52.710;6.398;2023-06-01T15:11:34;17.20;99.90
52125;DHT22;38119;52.710;6.398;2023-06-01T15:13:59;16.70;99.90
52125;DHT22;38119;52.710;6.398;2023-06-01T15:16:25;16.80;99.90
52125;DHT22;38119;52.710;6.398;2023-06-01T15:18:52;16.60;99.90
52125;DHT22;38119;52.710;6.398;2023-06-01T15:21:18;16.60;99.90
52125;DHT22;38119;52.710;6.398;2023-06-01T15:23:44;16.90;99.90
52125;DHT22;38119;52.710;6.398;2023-06-01T15:26:10;16.50;99.90
52125;DHT22;38119;52.710;6.398;2023-06-01T15:28:36;16.50;99.90
52125;DHT22;38119;52.710;6.398;2023-06-01T15:31:03;16.40;99.90
52125;DHT22;38119;52.710;6.398;2023-06-01T15:33:29;16.50;99.90
52125;DHT22;38119;52.710;6.398;2023-06-01T15:35:55;16.30;99.90
52125;DHT22;38119;52.710;6.398;2023-06-01T15:38:22;16.20;99.90
52125;DHT22;38119;52.710;6.398;2023-06-01T15:40:47;16.10;99.90
52125;DHT22;38119;52.710;6.398;2023-06-01T15:43:13;16.10;99.90
52125;DHT22;38119;52.710;6.398;2023-06-01T15:45:39;16.10;99.90
52125;DHT22;38119;52.710;6.398;2023-06-01T15:48:05;16.10;99.90
52125;DHT22;38119;52.710;6.398;2023-06-01T15:50:31;16.30;99.90
52125;DHT22;38119;52.710;6.398;2023-06-01T15:52:56;16.10;99.90
52125;DHT22;38119;52.710;6.398;2023-06-01T15:55:22;16.10;99.90
52125;DHT22;38119;52.710;6.398;2023-06-01T15:57:48;16.70;99.90
52125;DHT22;38119;52.710;6.398;2023-06-01T16:00:15;16.80;99.90